createdAt,value
2022-08-10T00:01:53.616Z,16.48
2022-08-10T00:04:23.835Z,17.67
2022-08-10T00:06:55.789Z,16.42
2022-08-10T00:09:25.047Z,16.25
2022-08-10T00:11:52.671Z,20.85
2022-08-10T00:14:20.645Z,16.23
2022-08-10T00:16:48.795Z,19.20
2022-08-10T00:19:18.085Z,18.23
2022-08-10T00:21:47.429Z,14.90
2022-08-10T00:24:15.803Z,20.38
2022-08-10T00:27:50.066Z,14.88
2022-08-10T00:29:32.386Z,15.98
2022-08-10T00:32:00.085Z,14.32
2022-08-10T00:34:29.690Z,15.43
2022-08-10T00:36:58.807Z,14.98
2022-08-10T00:39:28.646Z,16.25
2022-08-10T00:42:02.175Z,15.15
2022-08-10T00:44:44.484Z,20.70
2022-08-10T00:47:22.550Z,18.55
2022-08-10T00:50:01.852Z,19.38
2022-08-10T00:52:30.911Z,21.35
2022-08-10T00:54:59.267Z,15.95
2022-08-10T00:57:27.760Z,18.20
2022-08-10T00:59:59.323Z,15.05
2022-08-10T01:02:30.603Z,15.38
2022-08-10T01:05:07.802Z,18.55
2022-08-10T01:07:53.514Z,16.83
2022-08-10T01:10:28.398Z,14.32
2022-08-10T01:13:14.287Z,17.55
2022-08-10T01:16:18.172Z,15.15
2022-08-10T01:19:18.101Z,17.55
2022-08-10T01:22:10.398Z,12.95
2022-08-10T01:24:59.927Z,15.90
2022-08-10T01:27:36.494Z,18.85
2022-08-10T01:30:13.441Z,13.00
2022-08-10T01:33:06.898Z,14.23
2022-08-10T01:35:46.172Z,14.35
2022-08-10T01:38:42.000Z,13.93
2022-08-10T01:41:45.553Z,13.45
2022-08-10T01:46:56.905Z,16.70
2022-08-10T01:49:26.897Z,17.48
2022-08-10T01:52:00.511Z,16.75
2022-08-10T01:54:30.648Z,14.18
2022-08-10T01:56:59.828Z,14.32
2022-08-10T01:59:41.811Z,14.90
2022-08-10T02:02:25.540Z,15.98
2022-08-10T02:04:54.695Z,17.75
2022-08-10T02:07:27.724Z,14.13
2022-08-10T02:10:04.799Z,16.30
2022-08-10T02:12:35.984Z,14.82
2022-08-10T02:15:12.661Z,14.27
2022-08-10T02:18:02.245Z,15.07
2022-08-10T02:20:40.189Z,15.18
2022-08-10T02:23:16.508Z,12.98
2022-08-10T02:25:45.046Z,18.98
2022-08-10T02:28:29.992Z,16.05
2022-08-10T02:31:16.844Z,16.00
2022-08-10T02:33:56.529Z,16.77
2022-08-10T02:36:32.122Z,16.70
2022-08-10T02:45:14.169Z,15.52
2022-08-10T02:45:24.707Z,16.42
2022-08-10T02:48:07.244Z,15.75
2022-08-10T02:50:40.331Z,17.63
2022-08-10T02:53:55.751Z,16.13
2022-08-10T02:56:58.461Z,18.27
2022-08-10T02:59:42.055Z,19.73
2022-08-10T03:02:20.049Z,15.23
2022-08-10T03:04:55.277Z,19.85
2022-08-10T03:07:44.352Z,16.15
2022-08-10T03:10:41.092Z,17.70
2022-08-10T03:13:11.236Z,16.98
2022-08-10T03:15:40.377Z,16.67
2022-08-10T03:18:09.351Z,16.65
2022-08-10T03:20:40.806Z,17.55
2022-08-10T03:23:23.372Z,18.30
2022-08-10T03:25:55.116Z,21.80
2022-08-10T03:28:29.264Z,14.77
2022-08-10T03:31:00.092Z,17.67
2022-08-10T03:33:32.446Z,19.05
2022-08-10T03:36:43.773Z,19.38
2022-08-10T03:38:51.891Z,16.55
2022-08-10T03:41:36.641Z,16.50
2022-08-10T03:44:06.951Z,17.00
2022-08-10T03:46:37.393Z,17.27
2022-08-10T03:49:07.063Z,15.93
2022-08-10T03:51:36.097Z,17.88
2022-08-10T03:54:07.374Z,15.75
2022-08-10T03:56:37.616Z,19.55
2022-08-10T03:59:07.595Z,17.00
2022-08-10T04:02:41.696Z,19.48
2022-08-10T04:04:25.666Z,16.50
2022-08-10T04:06:57.077Z,17.92
2022-08-10T04:09:54.353Z,17.20
2022-08-10T04:12:24.373Z,16.20
2022-08-10T04:14:53.544Z,16.65
2022-08-10T04:18:01.311Z,16.60
2022-08-10T04:20:34.385Z,16.55
2022-08-10T04:23:12.304Z,14.23
2022-08-10T04:25:41.031Z,14.13
2022-08-10T04:28:10.744Z,14.82
2022-08-10T04:30:40.521Z,14.77
2022-08-10T04:33:13.824Z,21.08
2022-08-10T04:35:45.232Z,11.75
2022-08-10T04:38:15.615Z,12.82
2022-08-10T04:40:45.118Z,14.13
2022-08-10T04:43:13.596Z,12.18
2022-08-10T04:45:50.423Z,13.18
2022-08-10T04:48:39.900Z,11.10
2022-08-10T04:51:18.428Z,11.90
2022-08-10T04:54:04.864Z,13.73
2022-08-10T04:56:37.149Z,13.57
2022-08-10T04:59:06.920Z,12.27
2022-08-10T05:02:21.359Z,14.90
2022-08-10T05:04:36.624Z,14.20
2022-08-10T05:07:18.404Z,10.85
2022-08-10T05:10:01.827Z,11.02
2022-08-10T05:12:37.387Z,13.27
2022-08-10T05:15:13.906Z,13.02
2022-08-10T05:18:03.320Z,12.65
2022-08-10T05:20:31.269Z,11.68
2022-08-10T05:22:59.065Z,10.30
2022-08-10T05:25:26.842Z,10.07
2022-08-10T05:27:57.480Z,8.95
2022-08-10T05:30:25.488Z,9.55
2022-08-10T05:32:58.530Z,11.65
2022-08-10T05:35:55.187Z,8.85
2022-08-10T05:38:20.774Z,8.55
2022-08-10T05:40:50.465Z,9.65
2022-08-10T05:43:22.438Z,10.13
2022-08-10T05:46:19.938Z,9.57
2022-08-10T05:48:58.811Z,10.07
2022-08-10T05:51:30.093Z,11.25
2022-08-10T05:54:05.120Z,11.43
2022-08-10T05:56:53.265Z,8.02
2022-08-10T06:00:31.061Z,10.05
2022-08-10T06:02:35.512Z,10.75
2022-08-10T06:05:32.264Z,7.28
2022-08-10T06:08:17.573Z,10.02
2022-08-10T06:12:16.467Z,8.70
2022-08-10T06:14:06.144Z,6.30
2022-08-10T06:16:43.895Z,7.82
2022-08-10T06:19:15.170Z,11.13
2022-08-10T06:21:53.736Z,5.47
2022-08-10T06:24:31.403Z,6.55
2022-08-10T06:27:00.040Z,7.40
2022-08-10T06:29:30.935Z,11.07
2022-08-10T06:32:01.392Z,8.75
2022-08-10T06:34:36.501Z,4.47
2022-08-10T06:37:06.543Z,10.30
2022-08-10T06:39:36.762Z,7.88
2022-08-10T06:42:35.711Z,8.48
2022-08-10T06:45:16.632Z,12.18
2022-08-10T06:47:56.004Z,6.45
2022-08-10T06:50:44.822Z,6.22
2022-08-10T06:53:19.551Z,7.60
2022-08-10T06:55:55.526Z,8.40
2022-08-10T06:58:29.136Z,5.60
2022-08-10T07:00:58.890Z,7.88
2022-08-10T07:03:35.420Z,4.85
2022-08-10T07:06:06.777Z,5.50
2022-08-10T07:08:36.946Z,4.40
2022-08-10T07:11:11.850Z,7.88
2022-08-10T07:14:15.568Z,5.75
2022-08-10T07:16:32.400Z,3.72
2022-08-10T07:19:01.719Z,4.18
2022-08-10T07:21:31.088Z,8.82
2022-08-10T07:24:02.295Z,3.85
2022-08-10T07:26:32.982Z,3.88
2022-08-10T07:29:02.223Z,6.40
2022-08-10T07:31:55.190Z,10.75
2022-08-10T07:34:29.422Z,3.20
2022-08-10T07:37:03.709Z,3.60
2022-08-10T07:42:24.386Z,2.25
2022-08-10T07:44:52.930Z,2.65
2022-08-10T07:47:46.092Z,2.25
2022-08-10T07:50:22.568Z,3.10
2022-08-10T07:52:52.112Z,5.32
2022-08-10T07:56:05.317Z,3.50
2022-08-10T07:58:11.520Z,2.50
2022-08-10T08:00:40.945Z,6.13
2022-08-10T08:03:10.836Z,3.13
2022-08-10T08:05:58.443Z,4.18
2022-08-10T08:08:30.474Z,4.72
2022-08-10T08:10:59.658Z,2.42
2022-08-10T08:13:28.279Z,5.15
2022-08-10T08:16:17.532Z,2.92
2022-08-10T08:18:54.182Z,5.88
2022-08-10T08:24:08.455Z,4.22
2022-08-10T08:24:33.518Z,2.42
2022-08-10T08:27:03.821Z,4.68
2022-08-10T08:29:37.301Z,2.50
2022-08-10T08:32:06.391Z,3.63
2022-08-10T08:34:38.747Z,5.18
2022-08-10T08:37:09.765Z,5.63
2022-08-10T08:39:38.628Z,5.55
2022-08-10T08:42:26.311Z,3.15
2022-08-10T08:45:34.424Z,2.05
2022-08-10T08:48:08.385Z,2.35
2022-08-10T08:52:07.102Z,5.13
2022-08-10T08:54:16.945Z,3.15
2022-08-10T08:57:07.064Z,2.50
2022-08-10T09:00:07.000Z,4.03
2022-08-10T09:02:58.460Z,3.13
2022-08-10T09:05:58.792Z,6.80
2022-08-10T09:08:51.453Z,8.35
2022-08-10T09:11:56.514Z,5.68
2022-08-10T09:14:33.441Z,6.40
2022-08-10T09:17:25.041Z,6.13
2022-08-10T09:20:07.893Z,3.13
2022-08-10T09:22:44.767Z,4.00
2022-08-10T09:25:24.706Z,3.42
2022-08-10T09:28:01.270Z,4.43
2022-08-10T09:31:18.804Z,3.97
2022-08-10T09:36:20.490Z,2.05
2022-08-10T09:37:08.660Z,2.30
2022-08-10T09:40:12.573Z,2.05
2022-08-10T09:43:25.563Z,4.10
2022-08-10T09:46:06.604Z,4.57
2022-08-10T09:49:17.340Z,3.08
2022-08-10T09:52:00.834Z,3.33
2022-08-10T09:54:50.066Z,1.70
2022-08-10T09:57:44.099Z,4.40
2022-08-10T10:00:40.543Z,2.70
2022-08-10T10:03:40.712Z,3.45
2022-08-10T10:06:21.018Z,4.38
2022-08-10T10:09:10.686Z,5.03
2022-08-10T10:12:17.684Z,3.42
2022-08-10T10:15:24.626Z,3.85
2022-08-10T10:18:21.934Z,6.85
2022-08-10T10:21:24.240Z,3.80
2022-08-10T10:24:21.452Z,6.00
2022-08-10T10:26:57.939Z,2.63
2022-08-10T10:29:58.773Z,4.38
2022-08-10T10:32:37.139Z,4.20
2022-08-10T10:35:41.277Z,5.65
2022-08-10T10:38:12.249Z,4.43
2022-08-10T10:41:14.043Z,6.05
2022-08-10T10:44:09.854Z,4.60
2022-08-10T10:46:56.874Z,6.20
2022-08-10T10:49:46.296Z,3.92
2022-08-10T10:52:47.752Z,4.00
2022-08-10T10:56:13.366Z,2.25
